createdAt,value
2018-02-02T00:02:18.510Z,8.10
2018-02-02T00:04:49.033Z,6.70
2018-02-02T00:07:18.309Z,8.03
2018-02-02T00:09:47.251Z,8.50
2018-02-02T00:12:16.371Z,8.20
2018-02-02T00:14:45.380Z,9.90
2018-02-02T00:17:15.129Z,8.57
2018-02-02T00:19:44.486Z,8.67
2018-02-02T00:22:13.853Z,8.87
2018-02-02T00:24:42.868Z,9.20
2018-02-02T00:27:12.270Z,8.83
2018-02-02T00:29:41.621Z,9.67
2018-02-02T00:32:10.595Z,8.30
2018-02-02T00:34:39.564Z,9.50
2018-02-02T00:37:08.605Z,9.60
2018-02-02T00:39:37.645Z,9.40
2018-02-02T00:42:06.642Z,7.80
2018-02-02T00:44:36.447Z,8.47
2018-02-02T00:47:05.448Z,9.27
2018-02-02T00:49:35.193Z,8.17
2018-02-02T00:52:04.126Z,9.37
2018-02-02T00:54:33.124Z,8.83
2018-02-02T00:57:02.250Z,9.13
2018-02-02T00:59:31.220Z,7.60
2018-02-02T01:02:01.864Z,9.23
2018-02-02T01:04:31.305Z,7.77
2018-02-02T01:07:00.271Z,8.73
2018-02-02T01:09:29.209Z,8.30
2018-02-02T01:11:58.265Z,9.47
2018-02-02T01:14:27.652Z,7.77
2018-02-02T01:16:56.640Z,9.07
2018-02-02T01:19:25.590Z,9.50
2018-02-02T01:21:54.690Z,8.70
2018-02-02T01:24:23.598Z,8.43
2018-02-02T01:26:52.635Z,8.10
2018-02-02T01:29:21.954Z,8.77
2018-02-02T01:31:50.977Z,8.80
2018-02-02T01:34:19.971Z,9.00
2018-02-02T01:36:48.952Z,8.63
2018-02-02T01:39:17.895Z,8.27
2018-02-02T01:41:46.894Z,7.37
2018-02-02T01:44:15.857Z,6.83
2018-02-02T01:46:45.592Z,8.17
2018-02-02T01:49:14.587Z,8.30
2018-02-02T01:51:43.645Z,7.90
2018-02-02T01:54:12.975Z,8.13
2018-02-02T01:56:42.043Z,7.20
2018-02-02T01:59:10.981Z,7.63
2018-02-02T02:01:39.941Z,8.63
2018-02-02T02:04:08.902Z,8.10
2018-02-02T02:06:38.181Z,8.27
2018-02-02T02:09:08.478Z,9.23
2018-02-02T02:11:37.398Z,9.70
2018-02-02T02:14:06.365Z,10.33
2018-02-02T02:16:35.347Z,9.47
2018-02-02T02:19:04.328Z,10.70
2018-02-02T02:21:33.327Z,10.33
2018-02-02T02:24:02.289Z,10.67
2018-02-02T02:26:32.031Z,10.40
2018-02-02T02:29:01.016Z,10.97
2018-02-02T02:31:30.408Z,11.90
2018-02-02T02:33:59.396Z,10.97
2018-02-02T02:36:29.124Z,10.90
2018-02-02T02:38:58.578Z,10.00
2018-02-02T02:41:28.172Z,12.00
2018-02-02T02:43:57.148Z,12.80
2018-02-02T02:46:26.111Z,11.57
2018-02-02T02:48:55.861Z,11.63
2018-02-02T02:51:25.262Z,11.00
2018-02-02T02:53:55.276Z,12.60
2018-02-02T02:56:24.248Z,11.80
2018-02-02T02:58:53.571Z,11.07
2018-02-02T03:01:23.318Z,12.37
2018-02-02T03:03:52.700Z,12.77
2018-02-02T03:06:22.458Z,11.70
2018-02-02T03:08:51.809Z,12.67
2018-02-02T03:11:20.891Z,13.50
2018-02-02T03:13:49.889Z,12.20
2018-02-02T03:16:18.843Z,11.93
2018-02-02T03:18:47.832Z,11.07
2018-02-02T03:21:16.782Z,12.83
2018-02-02T03:23:46.155Z,13.53
2018-02-02T03:26:15.165Z,12.20
2018-02-02T03:28:44.126Z,12.60
2018-02-02T03:31:13.107Z,12.90
2018-02-02T03:33:42.085Z,13.17
2018-02-02T03:36:11.036Z,12.80
2018-02-02T03:38:40.040Z,11.67
2018-02-02T03:41:09.805Z,12.80
2018-02-02T03:43:38.785Z,12.17
2018-02-02T03:46:07.758Z,12.17
2018-02-02T03:48:36.714Z,12.10
2018-02-02T03:51:06.255Z,13.33
2018-02-02T03:53:35.747Z,12.87
2018-02-02T03:56:04.737Z,12.57
2018-02-02T03:58:33.730Z,12.90
2018-02-02T04:01:03.458Z,13.03
2018-02-02T04:03:32.928Z,12.50
2018-02-02T04:06:01.938Z,11.07
2018-02-02T04:08:31.750Z,10.93
2018-02-02T04:11:01.537Z,12.23
2018-02-02T04:13:30.597Z,11.40
2018-02-02T04:15:59.569Z,12.13
2018-02-02T04:18:28.590Z,11.57
2018-02-02T04:20:57.612Z,10.50
2018-02-02T04:23:27.029Z,11.67
2018-02-02T04:25:56.365Z,11.50
2018-02-02T04:28:25.340Z,11.70
2018-02-02T04:30:54.272Z,12.40
2018-02-02T04:33:24.089Z,11.20
2018-02-02T04:35:53.553Z,12.63
2018-02-02T04:38:22.627Z,13.27
2018-02-02T04:40:51.694Z,12.07
2018-02-02T04:43:20.690Z,12.67
2018-02-02T04:45:49.683Z,13.00
2018-02-02T04:48:18.762Z,14.33
2018-02-02T04:50:47.795Z,11.93
2018-02-02T04:53:16.730Z,12.27
2018-02-02T04:55:45.737Z,13.07
2018-02-02T04:58:14.692Z,13.97
2018-02-02T05:00:44.037Z,13.90
2018-02-02T05:03:13.208Z,13.20
2018-02-02T05:05:42.161Z,14.27
2018-02-02T05:08:11.931Z,12.67
2018-02-02T05:10:41.682Z,11.23
2018-02-02T05:13:11.392Z,11.40
2018-02-02T05:15:41.211Z,13.70
2018-02-02T05:18:10.706Z,13.87
2018-02-02T05:20:39.665Z,13.60
2018-02-02T05:23:08.655Z,14.13
2018-02-02T05:25:37.644Z,14.53
2018-02-02T05:28:07.392Z,13.97
2018-02-02T05:30:37.164Z,14.23
2018-02-02T05:33:06.141Z,12.60
2018-02-02T05:35:35.147Z,12.27
2018-02-02T05:38:04.905Z,14.00
2018-02-02T05:40:34.247Z,14.20
2018-02-02T05:43:03.291Z,13.90
2018-02-02T05:45:32.700Z,12.83
2018-02-02T05:48:01.656Z,13.90
2018-02-02T05:50:30.635Z,13.80
2018-02-02T05:53:00.373Z,14.20
2018-02-02T05:55:29.352Z,14.03
2018-02-02T05:57:58.346Z,12.13
2018-02-02T06:00:28.109Z,12.93
2018-02-02T06:02:57.071Z,13.23
2018-02-02T06:05:26.704Z,12.87
2018-02-02T06:07:55.673Z,13.33
2018-02-02T06:10:25.395Z,14.00
2018-02-02T06:12:55.144Z,14.93
2018-02-02T06:15:24.612Z,14.07
2018-02-02T06:17:53.504Z,15.80
2018-02-02T06:20:22.537Z,14.37
2018-02-02T06:22:51.487Z,14.57
2018-02-02T06:25:20.922Z,15.47
2018-02-02T06:27:51.043Z,14.60
2018-02-02T06:30:22.159Z,15.90
2018-02-02T06:32:51.128Z,14.53
2018-02-02T06:35:20.510Z,16.70
2018-02-02T06:37:49.460Z,16.17
2018-02-02T06:40:21.306Z,13.93
2018-02-02T06:42:50.383Z,16.17
2018-02-02T06:45:19.777Z,14.57
2018-02-02T06:47:49.496Z,14.93
2018-02-02T06:50:19.264Z,15.80
2018-02-02T06:52:48.673Z,15.77
2018-02-02T06:55:19.190Z,17.37
2018-02-02T06:57:48.245Z,15.83
2018-02-02T07:00:17.886Z,15.80
2018-02-02T07:02:47.643Z,15.97
2018-02-02T07:05:17.369Z,15.77
2018-02-02T07:07:46.396Z,14.73
2018-02-02T07:10:15.765Z,16.63
2018-02-02T07:12:45.252Z,15.33
2018-02-02T07:15:14.960Z,15.97
2018-02-02T07:17:44.767Z,13.80
2018-02-02T07:20:15.238Z,12.63
2018-02-02T07:22:44.613Z,14.50
2018-02-02T07:25:13.597Z,15.53
2018-02-02T07:27:42.789Z,16.10
2018-02-02T07:30:12.518Z,16.20
2018-02-02T07:32:42.265Z,16.60
2018-02-02T07:35:11.204Z,14.47
2018-02-02T07:37:40.977Z,16.50
2018-02-02T07:40:11.648Z,16.53
2018-02-02T07:42:41.381Z,16.97
2018-02-02T07:45:11.030Z,16.33
2018-02-02T07:47:40.040Z,15.57
2018-02-02T07:50:09.043Z,17.00
2018-02-02T07:52:38.759Z,16.43
2018-02-02T07:55:07.757Z,16.40
2018-02-02T07:57:37.210Z,15.03
2018-02-02T08:00:06.599Z,15.13
2018-02-02T08:02:35.949Z,17.35
2018-02-02T08:05:06.346Z,16.20
2018-02-02T08:07:35.298Z,21.58
2018-02-02T08:10:05.050Z,17.00
2018-02-02T08:12:34.813Z,13.43
2018-02-02T08:15:05.384Z,14.70
2018-02-02T08:17:34.836Z,13.73
2018-02-02T08:20:05.600Z,13.60
2018-02-02T08:22:34.600Z,14.90
2018-02-02T08:25:03.549Z,15.60
2018-02-02T08:27:35.511Z,13.83
2018-02-02T08:30:04.994Z,14.97
2018-02-02T08:32:33.963Z,13.67
2018-02-02T08:35:03.672Z,14.93
2018-02-02T08:37:32.663Z,14.17
2018-02-02T08:40:01.611Z,13.00
2018-02-02T08:42:30.568Z,12.83
2018-02-02T08:44:59.542Z,14.40
2018-02-02T08:47:28.516Z,13.27
2018-02-02T08:49:57.444Z,13.13
2018-02-02T08:52:27.206Z,13.17
2018-02-02T08:54:56.153Z,12.60
2018-02-02T08:57:25.554Z,13.23
2018-02-02T08:59:54.572Z,12.67
2018-02-02T09:02:23.542Z,12.67
2018-02-02T09:04:53.268Z,13.27
2018-02-02T09:07:22.406Z,12.90
2018-02-02T09:09:51.452Z,12.17
2018-02-02T09:12:21.157Z,11.30
2018-02-02T09:14:50.977Z,11.63
2018-02-02T09:17:19.982Z,11.03
2018-02-02T09:19:48.980Z,11.77
2018-02-02T09:22:18.047Z,12.77
2018-02-02T09:24:47.000Z,12.50
2018-02-02T09:27:15.928Z,12.00
2018-02-02T09:29:44.900Z,12.03
2018-02-02T09:32:13.869Z,12.30
2018-02-02T09:34:42.836Z,11.73
2018-02-02T09:37:12.212Z,11.23
2018-02-02T09:39:41.942Z,12.10
2018-02-02T09:42:11.346Z,10.73
2018-02-02T09:44:40.336Z,11.53
2018-02-02T09:47:09.353Z,10.80
2018-02-02T09:49:38.361Z,10.50
2018-02-02T09:52:07.304Z,7.87
2018-02-02T09:54:36.395Z,7.60
2018-02-02T09:57:06.132Z,9.00
2018-02-02T09:59:35.873Z,7.63
2018-02-02T10:02:04.857Z,8.10
2018-02-02T10:04:33.834Z,8.60
2018-02-02T10:07:02.802Z,7.20
2018-02-02T10:09:31.746Z,7.73
2018-02-02T10:12:00.780Z,6.53
2018-02-02T10:14:29.769Z,7.50
2018-02-02T10:16:59.514Z,7.23
2018-02-02T10:19:28.985Z,7.60
2018-02-02T10:21:58.701Z,6.20
2018-02-02T10:24:27.654Z,7.20
2018-02-02T10:26:56.621Z,6.57
2018-02-02T10:29:25.569Z,5.80
2018-02-02T10:31:54.937Z,5.90
2018-02-02T10:34:23.983Z,6.03
2018-02-02T10:36:52.938Z,6.70
2018-02-02T10:39:22.674Z,5.50
2018-02-02T10:41:51.624Z,5.47
2018-02-02T10:44:20.802Z,5.27
2018-02-02T10:46:49.763Z,5.97
2018-02-02T10:49:18.822Z,5.70
2018-02-02T10:51:48.561Z,6.67
2018-02-02T10:54:17.506Z,5.27
2018-02-02T10:56:46.479Z,4.60
2018-02-02T10:59:15.423Z,4.70
2018-02-02T11:01:44.460Z,4.40
2018-02-02T11:04:13.411Z,5.40
2018-02-02T11:06:42.461Z,3.83
2018-02-02T11:09:11.407Z,3.77
2018-02-02T11:11:40.388Z,4.00
2018-02-02T11:14:10.091Z,2.63
2018-02-02T11:16:39.792Z,2.80
2018-02-02T11:19:09.601Z,3.00
2018-02-02T11:21:39.308Z,3.03
2018-02-02T11:24:09.037Z,2.37
2018-02-02T11:26:38.768Z,2.40
2018-02-02T11:29:07.697Z,2.30
2018-02-02T11:31:36.672Z,2.90
2018-02-02T11:34:05.646Z,2.03
2018-02-02T11:36:34.583Z,2.10
2018-02-02T11:39:03.535Z,1.50
2018-02-02T11:41:32.598Z,1.63
2018-02-02T11:44:02.349Z,1.57
2018-02-02T11:46:31.265Z,2.13
2018-02-02T11:49:00.234Z,2.22
2018-02-02T11:51:29.942Z,1.80
2018-02-02T11:53:58.906Z,2.30
2018-02-02T11:56:27.968Z,1.70
2018-02-02T11:58:56.961Z,1.60
2018-02-02T12:01:25.910Z,1.30
2018-02-02T12:03:55.178Z,1.33
2018-02-02T12:06:24.658Z,1.80
2018-02-02T12:08:53.979Z,1.50
2018-02-02T12:11:22.948Z,1.40
2018-02-02T12:13:52.729Z,1.90
2018-02-02T12:16:21.676Z,1.57
2018-02-02T12:18:50.647Z,1.30
2018-02-02T12:21:20.045Z,1.83
2018-02-02T12:23:49.309Z,1.20
2018-02-02T12:29:37.559Z,1.20
2018-02-02T12:32:12.800Z,1.67
2018-02-02T12:34:53.530Z,1.10
2018-02-02T12:37:22.932Z,0.80
2018-02-02T12:39:51.876Z,1.23
2018-02-02T12:42:21.268Z,0.90
2018-02-02T12:44:50.307Z,1.70
2018-02-02T12:47:20.062Z,0.90
2018-02-02T12:50:00.987Z,0.97
2018-02-02T12:52:29.918Z,0.83
2018-02-02T12:54:58.916Z,0.80
2018-02-02T12:57:27.884Z,0.80
2018-02-02T12:59:56.897Z,0.97
2018-02-02T13:02:26.621Z,0.80
2018-02-02T13:04:55.557Z,1.13
2018-02-02T13:07:25.279Z,1.27
2018-02-02T13:09:54.232Z,0.90
2018-02-02T13:12:24.000Z,0.70
2018-02-02T13:14:53.025Z,0.60
2018-02-02T13:17:21.993Z,0.80
2018-02-02T13:19:50.910Z,0.80
2018-02-02T13:22:19.852Z,0.50
2018-02-02T13:24:48.941Z,0.70
2018-02-02T13:27:18.680Z,0.90
2018-02-02T13:29:47.600Z,0.70
2018-02-02T13:32:16.590Z,1.00
2018-02-02T13:38:01.763Z,0.93
2018-02-02T13:40:30.698Z,0.83
2018-02-02T13:42:59.637Z,1.00
2018-02-02T13:45:29.363Z,0.87
2018-02-02T13:47:58.331Z,1.10
2018-02-02T13:50:28.077Z,1.07
2018-02-02T13:52:57.771Z,1.50
2018-02-02T13:55:27.511Z,0.87
2018-02-02T13:57:57.213Z,1.20
2018-02-02T14:00:26.971Z,1.43
2018-02-02T14:02:55.918Z,1.40
2018-02-02T14:05:25.673Z,1.63
2018-02-02T14:07:54.601Z,2.13
2018-02-02T14:10:24.321Z,2.27
2018-02-02T14:12:53.296Z,3.80
2018-02-02T14:15:22.268Z,1.63
2018-02-02T14:17:51.228Z,2.30
2018-02-02T14:20:20.172Z,2.13
2018-02-02T14:22:49.311Z,2.53
2018-02-02T14:25:18.237Z,3.00
2018-02-02T14:27:47.240Z,3.07
2018-02-02T14:30:17.573Z,1.33
2018-02-02T14:32:46.524Z,1.87
2018-02-02T14:35:15.487Z,3.10
2018-02-02T14:37:45.379Z,2.30
2018-02-02T14:40:14.365Z,2.37
2018-02-02T14:42:45.311Z,2.80
2018-02-02T14:45:14.281Z,2.80
2018-02-02T14:47:43.238Z,2.63
2018-02-02T14:50:12.583Z,3.10
2018-02-02T14:52:41.816Z,2.70
2018-02-02T14:55:10.883Z,2.70
2018-02-02T14:57:39.850Z,4.40
2018-02-02T15:00:08.835Z,3.87
2018-02-02T15:02:38.191Z,2.33
2018-02-02T15:05:07.422Z,3.13
2018-02-02T15:07:37.151Z,1.90
2018-02-02T15:10:06.408Z,2.97
2018-02-02T15:12:35.647Z,1.57
2018-02-02T15:15:04.609Z,1.80
2018-02-02T15:17:34.660Z,1.10
2018-02-02T15:20:04.915Z,2.10
2018-02-02T15:22:35.593Z,1.40
2018-02-02T15:25:05.139Z,1.60
2018-02-02T15:27:34.071Z,1.37
2018-02-02T15:30:04.699Z,1.47
2018-02-02T15:32:33.795Z,4.07
2018-02-02T15:35:03.413Z,1.30
2018-02-02T15:37:32.334Z,1.97
2018-02-02T15:40:01.359Z,3.77
2018-02-02T15:42:30.309Z,1.93
2018-02-02T15:44:59.653Z,4.30
2018-02-02T15:47:28.600Z,2.63
2018-02-02T15:49:58.332Z,2.17
2018-02-02T15:52:27.300Z,3.13
2018-02-02T15:54:56.272Z,2.90
2018-02-02T15:57:25.608Z,4.60
2018-02-02T15:59:54.539Z,3.07
2018-02-02T16:02:23.525Z,2.73
2018-02-02T16:04:53.263Z,2.70
2018-02-02T16:07:22.231Z,4.37
2018-02-02T16:09:51.504Z,3.50
2018-02-02T16:12:20.474Z,2.67
2018-02-02T16:14:49.418Z,4.13
2018-02-02T16:17:18.401Z,2.47
2018-02-02T16:19:48.097Z,3.80
2018-02-02T16:22:17.457Z,1.70
2018-02-02T16:24:46.469Z,3.50
2018-02-02T16:27:15.445Z,2.27
2018-02-02T16:29:44.561Z,1.70
2018-02-02T16:32:14.345Z,1.70
2018-02-02T16:34:43.346Z,2.20
2018-02-02T16:37:12.392Z,2.70
2018-02-02T16:39:41.633Z,2.60
2018-02-02T16:42:10.889Z,4.57
2018-02-02T16:44:39.828Z,4.30
2018-02-02T16:47:08.772Z,5.37
2018-02-02T16:49:37.878Z,3.80
2018-02-02T16:52:06.877Z,2.60
2018-02-02T16:54:36.166Z,4.70
2018-02-02T16:57:05.132Z,2.50
2018-02-02T16:59:34.071Z,2.50
2018-02-02T17:02:03.406Z,3.60
2018-02-02T17:04:32.358Z,3.57
2018-02-02T17:07:01.358Z,3.40
2018-02-02T17:09:31.037Z,4.60
2018-02-02T17:12:00.319Z,2.30
2018-02-02T17:14:29.535Z,3.47
2018-02-02T17:16:58.532Z,4.50
2018-02-02T17:19:27.514Z,4.57
2018-02-02T17:21:56.509Z,5.20
2018-02-02T17:24:25.512Z,4.03
2018-02-02T17:26:54.517Z,3.37
2018-02-02T17:29:23.496Z,2.43
2018-02-02T17:31:52.424Z,3.70
2018-02-02T17:34:21.399Z,3.10
2018-02-02T17:36:51.108Z,3.33
2018-02-02T17:39:20.850Z,4.77
2018-02-02T17:41:49.813Z,4.00
2018-02-02T17:44:19.556Z,3.20
2018-02-02T17:46:48.573Z,3.47
2018-02-02T17:49:17.979Z,3.17
2018-02-02T17:51:46.941Z,4.43
2018-02-02T17:54:15.899Z,4.50
2018-02-02T17:56:45.627Z,4.10
2018-02-02T17:59:14.603Z,3.90
2018-02-02T18:02:00.077Z,3.63
2018-02-02T18:04:29.861Z,4.47
2018-02-02T18:06:58.840Z,5.27
2018-02-02T18:09:28.589Z,4.40
2018-02-02T18:11:58.317Z,4.63
2018-02-02T18:14:27.723Z,4.37
2018-02-02T18:16:56.744Z,5.00
2018-02-02T18:19:26.524Z,3.83
2018-02-02T18:21:55.498Z,4.73
2018-02-02T18:24:25.470Z,3.80
2018-02-02T18:26:54.948Z,4.03
2018-02-02T18:29:25.045Z,5.27
2018-02-02T18:31:54.803Z,4.37
2018-02-02T18:34:23.791Z,3.90
2018-02-02T18:36:53.606Z,4.73
2018-02-02T18:39:23.318Z,4.17
2018-02-02T18:41:52.298Z,5.27
2018-02-02T18:44:21.288Z,4.73
2018-02-02T18:46:50.240Z,4.80
2018-02-02T18:49:19.609Z,5.23
2018-02-02T18:51:48.602Z,5.13
2018-02-02T18:54:17.689Z,4.97
2018-02-02T18:56:46.660Z,6.07
2018-02-02T18:59:15.672Z,5.17
2018-02-02T19:01:45.092Z,5.53
2018-02-02T19:04:14.379Z,5.30
2018-02-02T19:06:43.446Z,6.30
2018-02-02T19:09:12.850Z,6.83
2018-02-02T19:11:42.186Z,5.83
2018-02-02T19:14:11.612Z,6.43
2018-02-02T19:16:41.424Z,5.43
2018-02-02T19:19:11.178Z,5.63
2018-02-02T19:21:40.156Z,5.60
2018-02-02T19:24:09.209Z,6.50
2018-02-02T19:26:38.215Z,7.57
2018-02-02T19:29:08.337Z,6.47
2018-02-02T19:31:39.648Z,7.00
2018-02-02T19:34:10.789Z,6.13
2018-02-02T19:36:39.786Z,5.70
2018-02-02T19:39:08.813Z,6.53
2018-02-02T19:41:37.797Z,7.20
2018-02-02T19:44:07.708Z,5.73
2018-02-02T19:46:36.796Z,5.67
2018-02-02T19:49:05.845Z,7.17
2018-02-02T19:51:35.379Z,8.30
2018-02-02T19:54:04.760Z,7.33
2018-02-02T19:56:34.636Z,7.00
2018-02-02T19:59:04.013Z,8.10
2018-02-02T20:01:34.074Z,6.70
2018-02-02T20:04:03.334Z,7.27
2018-02-02T20:06:33.084Z,6.70
2018-02-02T20:09:13.983Z,7.50
2018-02-02T20:11:43.073Z,7.33
2018-02-02T20:14:12.151Z,8.07
2018-02-02T20:16:42.014Z,8.23
2018-02-02T20:19:11.106Z,8.53
2018-02-02T20:21:40.919Z,9.33
2018-02-02T20:24:10.702Z,8.90
2018-02-02T20:26:40.120Z,9.63
2018-02-02T20:29:09.179Z,8.73
2018-02-02T20:31:38.192Z,7.30
2018-02-02T20:34:08.515Z,8.87
2018-02-02T20:36:37.537Z,8.00
2018-02-02T20:39:07.317Z,8.87
2018-02-02T20:41:36.320Z,8.37
2018-02-02T20:44:05.395Z,8.73
2018-02-02T20:46:34.469Z,8.60
2018-02-02T20:49:03.522Z,9.20
2018-02-02T20:51:33.362Z,8.77
2018-02-02T20:54:04.164Z,8.70
2018-02-02T20:56:33.164Z,8.13
2018-02-02T20:59:02.232Z,10.83
2018-02-02T21:01:31.318Z,9.47
2018-02-02T21:04:00.370Z,8.53
2018-02-02T21:06:29.791Z,7.77
2018-02-02T21:08:59.603Z,8.77
2018-02-02T21:11:29.996Z,8.60
2018-02-02T21:13:59.746Z,7.90
2018-02-02T21:16:28.807Z,8.27
2018-02-02T21:18:58.608Z,8.73
2018-02-02T21:21:28.949Z,8.30
2018-02-02T21:23:57.979Z,6.80
2018-02-02T21:26:27.113Z,7.30
2018-02-02T21:28:56.091Z,7.70
2018-02-02T21:31:25.566Z,8.33
2018-02-02T21:33:54.598Z,7.00
2018-02-02T21:36:23.581Z,7.83
2018-02-02T21:38:53.014Z,7.70
2018-02-02T21:41:22.056Z,8.17
2018-02-02T21:43:51.471Z,8.13
2018-02-02T21:46:21.310Z,7.97
2018-02-02T21:48:51.092Z,8.20
2018-02-02T21:51:20.559Z,9.10
2018-02-02T21:53:49.956Z,8.13
2018-02-02T21:56:18.959Z,8.67
2018-02-02T21:58:49.098Z,7.93
2018-02-02T22:01:18.936Z,7.20
2018-02-02T22:03:50.389Z,8.40
2018-02-02T22:06:19.612Z,8.00
2018-02-02T22:08:49.375Z,8.20
2018-02-02T22:11:18.341Z,8.20
2018-02-02T22:13:47.308Z,6.47
2018-02-02T22:16:17.239Z,7.83
2018-02-02T22:18:46.305Z,6.97
2018-02-02T22:21:16.110Z,6.00
2018-02-02T22:23:45.104Z,7.13
2018-02-02T22:26:14.848Z,6.27
2018-02-02T22:28:44.238Z,7.00
2018-02-02T22:31:13.245Z,5.90
2018-02-02T22:33:42.712Z,7.20
2018-02-02T22:36:12.493Z,5.37
2018-02-02T22:38:41.482Z,5.60
2018-02-02T22:41:10.445Z,5.47
2018-02-02T22:43:39.802Z,6.60
2018-02-02T22:46:09.217Z,5.00
2018-02-02T22:48:38.201Z,5.37
2018-02-02T22:51:07.531Z,5.77
2018-02-02T22:53:36.529Z,4.90
2018-02-02T22:56:06.254Z,4.83
2018-02-02T22:58:35.465Z,7.27
2018-02-02T23:01:04.447Z,5.10
2018-02-02T23:03:33.393Z,4.97
2018-02-02T23:06:02.965Z,5.40
2018-02-02T23:08:31.902Z,5.63
2018-02-02T23:11:01.043Z,5.70
2018-02-02T23:13:29.995Z,4.50
2018-02-02T23:15:58.968Z,4.73
2018-02-02T23:18:28.308Z,5.13
2018-02-02T23:20:57.589Z,5.27
2018-02-02T23:23:26.569Z,3.93
2018-02-02T23:25:55.529Z,4.30
2018-02-02T23:28:24.676Z,4.20
2018-02-02T23:30:53.612Z,4.53
2018-02-02T23:33:22.573Z,4.50
2018-02-02T23:35:51.544Z,3.60
2018-02-02T23:38:20.484Z,3.23
2018-02-02T23:40:49.521Z,3.37
2018-02-02T23:43:18.525Z,3.70
2018-02-02T23:48:11.462Z,3.20
2018-02-02T23:50:41.176Z,3.80
2018-02-02T23:53:10.940Z,2.87
2018-02-02T23:55:39.890Z,2.70
2018-02-02T23:58:09.686Z,3.93
